Main page
Satellite images 10-day forecastsClimateMarine weather Cyclones Lightning AirportsFAQ Newsletter About
Weather : Europe Africa North America South America Asia Australia-Oceania Others
Languages Contact

,

latitude: , longitude: , elevation: m


METAR: OTBD 300300Z 22007KT 190V250 CAVOK 37/14 Q0997 NOSIG
TAF: OTBD 292300Z 3000/3106 22004KT CAVOK BECMG 3007/3009 09010KT TEMPO 3020/3105 VRB02KT 8000 NSC PROB30 TEMPO 3100/3104 5000 HZ

Time: 06:02 (04:02 UTC)

Current weather observation

The report was made 1 hour and 2 minutes ago, at 03:00 UTC
Wind 7 kt from the Southwest, varying between South and West/Southwest
Temperature 37°C
Humidity 25%
Pressure 997 hPa
Visibility 10 km or more
no clouds below 1500 m and no cumulonimbus

Change units

Forecast

The report was made 5 hours and 2 minutes ago, at 23:00 UTC
Forecast valid from 30 at 00 UTC to 31 at 06 UTC
Wind 4 kt from the Southwest
Visibility 10 km or more
no clouds below 1500 m and no cumulonimbus
Becoming
from 30 at 07 UTC to 30 at 09 UTC
Wind 10 kt from the East
Temporary
from 30 at 20 UTC to 31 at 05 UTC
Wind 2 kt from variable directions
Visibility: 8000 m
Probability 30% :
Temporary
from 31 at 00 UTC to 31 at 04 UTC
Visibility: 5000 m
haze
The information on this site is subject to a disclaimer
Weather : Europe Africa North America South America Asia Australia-Oceania Others
Satellite images 10-day forecastsClimateMarine weather Cyclones Lightning AirportsFAQ Languages Contact Newsletter About